Darstellungsparameter: Aktuell verwendete Einstellungen:
Skalierung der Graphiken ... ?
xyx+y,   Skalierungsfaktor:      Skalierung: Modus: x, Faktor: 1
Darstellungszeitraum ... ?
Vom - - bis: - -   Zeitraum: 26.02.2020 - 26.02.2020
Min/Max/Avg-Anzeige ... ?
Zeige MMA aktuell
Zeige MMA Monat
Zeige MMA alles
Zeige --A aktuell
Zeige --A Monat
Zeige --A alles
Keine MMA-Anzeige
MMA:
Average (ber die Originaldaten)
MMA-Basis: 26.02.2020 - 26.02.2020
Quicknavigation für Darstellung... ?
Tage:      1T, 2T, 3T, 5T -1T -2T -3T -5T +1T +2T +3T +5T
Wochen: 1W, 2W, 3W -1W -2W -3W +1W +2W +3W
Monate: 1M, 3M, 6M -1M -3M -6M +1M +3M +6M
Jahre:    1J, 3J, 5J, 10J -1J -3J -5J -10J +1J +3J +5J +10J
Nutze für die Darstellung ... ?
Originaldaten oder Mittelwerte auf ...
Stundenbasis Tagesbasis Wochenbasis
Monatsbasis Jahresbasis      Datenbasis: Original-Daten
Darstellen als:
Statistik (Auto) Statistik J:M      Darstellung:
Zur Graphik,    zurück zur Übersicht aller Sensoren.
 
Tabellarische Datenbersicht: ?
 
Sensor: Nr:Datum:Temp:Abs-Feuchte:Windchill:Wind:
Aussen-T/F 1 26-02-2020 00:00:00 5.7 C 5.76 g/m*3 5.7 C 4.8 km/h
2 26-02-2020 00:05:00 5.7 C 5.76 g/m*3 5.7 C 1.6 km/h
3 26-02-2020 00:10:00 5.7 C 5.84 g/m*3 5.7 C 1.6 km/h
4 26-02-2020 00:15:00 5.7 C 5.84 g/m*3 5.7 C 0 km/h
5 26-02-2020 00:20:00 5.7 C 5.91 g/m*3 5.7 C 0 km/h
6 26-02-2020 00:25:00 5.6 C 5.87 g/m*3 5.6 C 0 km/h
7 26-02-2020 00:30:00 5.6 C 5.8 g/m*3 5.6 C 0 km/h
8 26-02-2020 00:35:00 5.6 C 5.8 g/m*3 5.6 C 1.6 km/h
9 26-02-2020 00:40:00 5.6 C 5.8 g/m*3 3.11 C 11.3 km/h
10 26-02-2020 00:45:00 5.8 C 5.87 g/m*3 3.36 C 11.3 km/h
11 26-02-2020 00:50:00 5.8 C 5.8 g/m*3 4.05 C 8.1 km/h
12 26-02-2020 00:55:00 5.9 C 5.91 g/m*3 4.63 C 6.4 km/h
13 26-02-2020 01:00:00 5.9 C 5.91 g/m*3 5.9 C 3.2 km/h
14 26-02-2020 01:05:00 6 C 5.95 g/m*3 4.75 C 6.4 km/h
15 26-02-2020 01:10:00 6 C 6.02 g/m*3 3.31 C 12.9 km/h
16 26-02-2020 01:15:00 6 C 6.02 g/m*3 4.28 C 8.1 km/h
17 26-02-2020 01:20:00 6 C 6.02 g/m*3 3.06 C 14.5 km/h
18 26-02-2020 01:25:00 6 C 6.1 g/m*3 3.31 C 12.9 km/h
19 26-02-2020 01:30:00 6 C 6.1 g/m*3 2.23 C 20.9 km/h
20 26-02-2020 01:35:00 5.9 C 6.06 g/m*3 2.93 C 14.5 km/h
21 26-02-2020 01:40:00 5.9 C 6.06 g/m*3 3.48 C 11.3 km/h
22 26-02-2020 01:45:00 5.8 C 6.02 g/m*3 2.81 C 14.5 km/h
23 26-02-2020 01:50:00 5.7 C 5.98 g/m*3 2.95 C 12.9 km/h
24 26-02-2020 01:55:00 5.6 C 5.87 g/m*3 2.11 C 17.7 km/h
25 26-02-2020 02:00:00 5.6 C 5.8 g/m*3 2.83 C 12.9 km/h
Sensor: Nr:Datum:Temp:Abs-Feuchte:Windchill:Wind:
Aussen-T/F 26 26-02-2020 02:05:00 5.6 C 5.8 g/m*3 2.11 C 17.7 km/h
27 26-02-2020 02:10:00 5.6 C 5.8 g/m*3 2.83 C 12.9 km/h
28 26-02-2020 02:15:00 5.6 C 5.73 g/m*3 3.44 C 9.7 km/h
29 26-02-2020 02:20:00 5.6 C 5.73 g/m*3 3.11 C 11.3 km/h
30 26-02-2020 02:25:00 5.6 C 5.8 g/m*3 3.81 C 8.1 km/h
31 26-02-2020 02:30:00 5.6 C 5.8 g/m*3 3.44 C 9.7 km/h
32 26-02-2020 02:35:00 5.6 C 5.73 g/m*3 2.57 C 14.5 km/h
33 26-02-2020 02:40:00 5.6 C 5.73 g/m*3 3.44 C 9.7 km/h
34 26-02-2020 02:45:00 5.5 C 5.55 g/m*3 2.2 C 16.1 km/h
35 26-02-2020 02:50:00 5.5 C 5.55 g/m*3 1.99 C 17.7 km/h
36 26-02-2020 02:55:00 5.5 C 5.55 g/m*3 2.7 C 12.9 km/h
37 26-02-2020 03:00:00 5.4 C 5.44 g/m*3 1.86 C 17.7 km/h
38 26-02-2020 03:05:00 5.4 C 5.44 g/m*3 3.2 C 9.7 km/h
39 26-02-2020 03:10:00 5.3 C 5.41 g/m*3 2.2 C 14.5 km/h
40 26-02-2020 03:15:00 5.3 C 5.41 g/m*3 2.46 C 12.9 km/h
41 26-02-2020 03:20:00 5.3 C 5.41 g/m*3 2.2 C 14.5 km/h
42 26-02-2020 03:25:00 5.2 C 5.44 g/m*3 2.63 C 11.3 km/h
43 26-02-2020 03:30:00 5.1 C 5.34 g/m*3 2.22 C 12.9 km/h
44 26-02-2020 03:35:00 4.9 C 5.27 g/m*3 1.97 C 12.9 km/h
45 26-02-2020 03:40:00 4.7 C 5.2 g/m*3 2.76 C 8.1 km/h
46 26-02-2020 03:45:00 4.6 C 5.16 g/m*3 2.25 C 9.7 km/h
47 26-02-2020 03:50:00 4.5 C 5.19 g/m*3 1.79 C 11.3 km/h
48 26-02-2020 03:55:00 4.5 C 5.26 g/m*3 1.79 C 11.3 km/h
49 26-02-2020 04:00:00 4.4 C 5.22 g/m*3 1.67 C 11.3 km/h
50 26-02-2020 04:05:00 4.4 C 5.29 g/m*3 1.09 C 14.5 km/h
Sensor: Nr:Datum:Temp:Abs-Feuchte:Windchill:Wind:
Aussen-T/F 51 26-02-2020 04:10:00 4.4 C 5.29 g/m*3 1.67 C 11.3 km/h
52 26-02-2020 04:15:00 4.4 C 5.29 g/m*3 1.09 C 14.5 km/h
53 26-02-2020 04:20:00 4.4 C 5.29 g/m*3 1.09 C 14.5 km/h
54 26-02-2020 04:25:00 4.4 C 5.29 g/m*3 1.36 C 12.9 km/h
55 26-02-2020 04:30:00 4.4 C 5.29 g/m*3 1.36 C 12.9 km/h
56 26-02-2020 04:35:00 4.4 C 5.29 g/m*3 0.4 C 19.3 km/h
57 26-02-2020 04:40:00 4.3 C 5.25 g/m*3 1.55 C 11.3 km/h
58 26-02-2020 04:45:00 4.3 C 5.25 g/m*3 0.49 C 17.7 km/h
59 26-02-2020 04:50:00 4.3 C 5.25 g/m*3 0.49 C 17.7 km/h
60 26-02-2020 04:55:00 4.3 C 5.25 g/m*3 1.89 C 9.7 km/h
61 26-02-2020 05:00:00 4.4 C 5.29 g/m*3 1.36 C 12.9 km/h
62 26-02-2020 05:05:00 4.4 C 5.22 g/m*3 0.84 C 16.1 km/h
63 26-02-2020 05:10:00 4.4 C 5.16 g/m*3 0.61 C 17.7 km/h
64 26-02-2020 05:15:00 4.5 C 5.19 g/m*3 0.52 C 19.3 km/h
65 26-02-2020 05:20:00 4.5 C 5.19 g/m*3 0.14 C 22.5 km/h
66 26-02-2020 05:25:00 4.5 C 5.19 g/m*3 -0.2 C 25.7 km/h
67 26-02-2020 05:30:00 4.5 C 5.19 g/m*3 0.14 C 22.5 km/h
68 26-02-2020 05:35:00 4.4 C 5.16 g/m*3 1.67 C 11.3 km/h
69 26-02-2020 05:40:00 4.4 C 5.16 g/m*3 1.67 C 11.3 km/h
70 26-02-2020 05:45:00 4.4 C 5.16 g/m*3 0.4 C 19.3 km/h
71 26-02-2020 05:50:00 4.3 C 5.12 g/m*3 0.27 C 19.3 km/h
72 26-02-2020 05:55:00 4.3 C 5.06 g/m*3 0.49 C 17.7 km/h
73 26-02-2020 06:00:00 4.3 C 5.12 g/m*3 0.97 C 14.5 km/h
74 26-02-2020 06:05:00 4.3 C 5.06 g/m*3 -0.46 C 25.7 km/h
75 26-02-2020 06:10:00 4.3 C 4.99 g/m*3 0.27 C 19.3 km/h
Sensor: Nr:Datum:Temp:Abs-Feuchte:Windchill:Wind:
Aussen-T/F 76 26-02-2020 06:15:00 4.4 C 5.03 g/m*3 0.4 C 19.3 km/h
77 26-02-2020 06:20:00 4.4 C 5.03 g/m*3 0.01 C 22.5 km/h
78 26-02-2020 06:25:00 4.4 C 5.09 g/m*3 0.61 C 17.7 km/h
79 26-02-2020 06:30:00 4.3 C 5.06 g/m*3 0.72 C 16.1 km/h
80 26-02-2020 06:35:00 4.2 C 5.03 g/m*3 -1.18 C 32.2 km/h
81 26-02-2020 06:40:00 4.2 C 4.96 g/m*3 -1.18 C 32.2 km/h
82 26-02-2020 06:45:00 4.2 C 4.96 g/m*3 -0.24 C 22.5 km/h
83 26-02-2020 06:50:00 4.2 C 5.03 g/m*3 0.36 C 17.7 km/h
84 26-02-2020 06:55:00 4.2 C 5.03 g/m*3 0.36 C 17.7 km/h
85 26-02-2020 07:00:00 4.1 C 4.99 g/m*3 0.24 C 17.7 km/h
86 26-02-2020 07:05:00 4.1 C 4.99 g/m*3 -0.71 C 25.7 km/h
87 26-02-2020 07:10:00 4.1 C 5.06 g/m*3 0.72 C 14.5 km/h
88 26-02-2020 07:15:00 4 C 5.02 g/m*3 0.11 C 17.7 km/h
89 26-02-2020 07:20:00 3.9 C 4.99 g/m*3 -0.23 C 19.3 km/h
90 26-02-2020 07:25:00 3.9 C 5.05 g/m*3 -0.01 C 17.7 km/h
91 26-02-2020 07:30:00 3.9 C 5.05 g/m*3 0.47 C 14.5 km/h
92 26-02-2020 07:35:00 3.8 C 5.08 g/m*3 0.63 C 12.9 km/h
93 26-02-2020 07:40:00 3.9 C 5.12 g/m*3 0.75 C 12.9 km/h
94 26-02-2020 07:45:00 3.9 C 5.12 g/m*3 0.75 C 12.9 km/h
95 26-02-2020 07:50:00 3.9 C 5.12 g/m*3 -0.01 C 17.7 km/h
96 26-02-2020 07:55:00 3.9 C 5.12 g/m*3 -1.58 C 32.2 km/h
97 26-02-2020 08:00:00 4 C 5.15 g/m*3 -0.31 C 20.9 km/h
98 26-02-2020 08:05:00 4 C 5.15 g/m*3 0.6 C 14.5 km/h
99 26-02-2020 08:10:00 4 C 5.15 g/m*3 -0.11 C 19.3 km/h
100 26-02-2020 08:15:00 4 C 5.15 g/m*3 0.34 C 16.1 km/h
Sensor: Nr:Datum:Temp:Abs-Feuchte:Windchill:Wind:
Aussen-T/F 101 26-02-2020 08:20:00 4 C 5.15 g/m*3 0.6 C 14.5 km/h
102 26-02-2020 08:25:00 4.1 C 5.12 g/m*3 0.02 C 19.3 km/h
103 26-02-2020 08:30:00 4.1 C 5.12 g/m*3 1.31 C 11.3 km/h
104 26-02-2020 08:35:00 4.1 C 5.12 g/m*3 0.02 C 19.3 km/h
105 26-02-2020 08:40:00 4.2 C 5.15 g/m*3 -0.42 C 24.1 km/h
106 26-02-2020 08:45:00 4.2 C 5.15 g/m*3 -0.05 C 20.9 km/h
107 26-02-2020 08:50:00 4.2 C 5.15 g/m*3 0.15 C 19.3 km/h
108 26-02-2020 08:55:00 4.2 C 5.22 g/m*3 -0.05 C 20.9 km/h
109 26-02-2020 09:00:00 4.1 C 5.18 g/m*3 0.72 C 14.5 km/h
110 26-02-2020 09:05:00 4 C 5.21 g/m*3 -0.31 C 20.9 km/h
111 26-02-2020 09:10:00 3.9 C 5.24 g/m*3 -0.62 C 22.5 km/h
112 26-02-2020 09:15:00 3.8 C 5.21 g/m*3 -0.36 C 19.3 km/h
113 26-02-2020 09:20:00 3.8 C 5.27 g/m*3 -0.14 C 17.7 km/h
114 26-02-2020 09:25:00 3.7 C 5.23 g/m*3 -0.48 C 19.3 km/h
115 26-02-2020 09:30:00 3.7 C 5.3 g/m*3 0.23 C 14.5 km/h
116 26-02-2020 09:35:00 3.7 C 5.3 g/m*3 0.23 C 14.5 km/h
117 26-02-2020 09:40:00 3.8 C 5.33 g/m*3 0.35 C 14.5 km/h
118 26-02-2020 09:45:00 4 C 5.4 g/m*3 0.88 C 12.9 km/h
119 26-02-2020 09:50:00 4.2 C 5.41 g/m*3 0.15 C 19.3 km/h
120 26-02-2020 09:55:00 4.2 C 5.35 g/m*3 0.15 C 19.3 km/h
121 26-02-2020 10:00:00 4.3 C 5.45 g/m*3 0.72 C 16.1 km/h
122 26-02-2020 10:05:00 4.2 C 5.41 g/m*3 0.84 C 14.5 km/h
123 26-02-2020 10:10:00 4.2 C 5.41 g/m*3 0.36 C 17.7 km/h
124 26-02-2020 10:15:00 4.2 C 5.41 g/m*3 0.59 C 16.1 km/h
125 26-02-2020 10:20:00 4.2 C 5.41 g/m*3 0.15 C 19.3 km/h
Sensor: Nr:Datum:Temp:Abs-Feuchte:Windchill:Wind:
Aussen-T/F 126 26-02-2020 10:25:00 4.2 C 5.48 g/m*3 0.36 C 17.7 km/h
127 26-02-2020 10:30:00 4.1 C 5.5 g/m*3 0.02 C 19.3 km/h
128 26-02-2020 10:35:00 4.2 C 5.48 g/m*3 0.36 C 17.7 km/h
129 26-02-2020 10:40:00 4.2 C 5.54 g/m*3 0.36 C 17.7 km/h
130 26-02-2020 10:45:00 4.3 C 5.51 g/m*3 -0.46 C 25.7 km/h
131 26-02-2020 10:50:00 4.4 C 5.55 g/m*3 1.09 C 14.5 km/h
132 26-02-2020 10:55:00 4.6 C 5.56 g/m*3 1.09 C 16.1 km/h
133 26-02-2020 11:00:00 4.7 C 5.6 g/m*3 0.78 C 19.3 km/h
134 26-02-2020 11:05:00 4.8 C 5.57 g/m*3 0.9 C 19.3 km/h
135 26-02-2020 11:10:00 4.9 C 5.54 g/m*3 1.03 C 19.3 km/h
136 26-02-2020 11:15:00 5 C 5.5 g/m*3 1.58 C 16.1 km/h
137 26-02-2020 11:20:00 5.1 C 5.47 g/m*3 0.91 C 22.5 km/h
138 26-02-2020 11:25:00 5.2 C 5.58 g/m*3 1.61 C 17.7 km/h
139 26-02-2020 11:30:00 5.3 C 5.61 g/m*3 1.96 C 16.1 km/h
140 26-02-2020 11:35:00 5.4 C 5.58 g/m*3 2.32 C 14.5 km/h
141 26-02-2020 11:40:00 5.5 C 5.55 g/m*3 1.59 C 20.9 km/h
142 26-02-2020 11:45:00 5.6 C 5.59 g/m*3 1.72 C 20.9 km/h
143 26-02-2020 11:50:00 5.6 C 5.59 g/m*3 1.72 C 20.9 km/h
144 26-02-2020 11:55:00 5.7 C 5.55 g/m*3 2.24 C 17.7 km/h
145 26-02-2020 12:00:00 5.9 C 5.7 g/m*3 2.29 C 19.3 km/h
146 26-02-2020 12:05:00 6 C 5.66 g/m*3 3.06 C 14.5 km/h
147 26-02-2020 12:10:00 6.1 C 5.7 g/m*3 2.54 C 19.3 km/h
148 26-02-2020 12:15:00 6.1 C 5.7 g/m*3 2.54 C 19.3 km/h
149 26-02-2020 12:20:00 6.2 C 5.74 g/m*3 3.07 C 16.1 km/h
150 26-02-2020 12:25:00 6.1 C 5.55 g/m*3 2.18 C 22.5 km/h
Sensor: Nr:Datum:Temp:Abs-Feuchte:Windchill:Wind:
Aussen-T/F 151 26-02-2020 12:30:00 6.1 C 5.63 g/m*3 2.35 C 20.9 km/h
152 26-02-2020 12:35:00 6 C 5.59 g/m*3 2.23 C 20.9 km/h
153 26-02-2020 12:40:00 5.9 C 5.55 g/m*3 2.29 C 19.3 km/h
154 26-02-2020 12:45:00 5.9 C 5.55 g/m*3 1.93 C 22.5 km/h
155 26-02-2020 12:50:00 5.9 C 5.48 g/m*3 2.29 C 19.3 km/h
156 26-02-2020 12:55:00 6.1 C 5.55 g/m*3 2.73 C 17.7 km/h
157 26-02-2020 13:00:00 6.3 C 5.55 g/m*3 2.98 C 17.7 km/h
158 26-02-2020 13:05:00 6.4 C 5.59 g/m*3 2.73 C 20.9 km/h
159 26-02-2020 13:10:00 6.3 C 5.48 g/m*3 2.61 C 20.9 km/h
160 26-02-2020 13:15:00 6.3 C 5.55 g/m*3 3.2 C 16.1 km/h
161 26-02-2020 13:20:00 6.3 C 5.55 g/m*3 2.79 C 19.3 km/h
162 26-02-2020 13:25:00 6.1 C 5.63 g/m*3 1.86 C 25.7 km/h
163 26-02-2020 13:30:00 5.8 C 5.66 g/m*3 2.36 C 17.7 km/h
164 26-02-2020 13:35:00 5.7 C 5.55 g/m*3 2.03 C 19.3 km/h
165 26-02-2020 13:40:00 5.7 C 5.62 g/m*3 1.5 C 24.1 km/h
166 26-02-2020 13:45:00 5.7 C 5.69 g/m*3 2.95 C 12.9 km/h
167 26-02-2020 13:50:00 5.8 C 5.73 g/m*3 2.81 C 14.5 km/h
168 26-02-2020 13:55:00 5.7 C 5.62 g/m*3 2.03 C 19.3 km/h
169 26-02-2020 14:00:00 5.7 C 5.69 g/m*3 2.03 C 19.3 km/h
170 26-02-2020 14:05:00 5.7 C 5.76 g/m*3 1.85 C 20.9 km/h
171 26-02-2020 14:10:00 5.6 C 5.73 g/m*3 2.11 C 17.7 km/h
172 26-02-2020 14:15:00 5.6 C 5.73 g/m*3 2.57 C 14.5 km/h
173 26-02-2020 14:20:00 5.7 C 5.76 g/m*3 2.69 C 14.5 km/h
174 26-02-2020 14:25:00 5.6 C 5.73 g/m*3 2.83 C 12.9 km/h
175 26-02-2020 14:30:00 5.6 C 5.73 g/m*3 1.72 C 20.9 km/h
Sensor: Nr:Datum:Temp:Abs-Feuchte:Windchill:Wind:
Aussen-T/F 176 26-02-2020 14:35:00 5.6 C 5.8 g/m*3 2.11 C 17.7 km/h
177 26-02-2020 14:40:00 5.7 C 5.91 g/m*3 2.95 C 12.9 km/h
178 26-02-2020 14:45:00 5.8 C 5.8 g/m*3 1.97 C 20.9 km/h
179 26-02-2020 14:50:00 5.8 C 5.8 g/m*3 3.07 C 12.9 km/h
180 26-02-2020 14:55:00 5.9 C 5.77 g/m*3 2.7 C 16.1 km/h
181 26-02-2020 15:00:00 5.9 C 5.77 g/m*3 2.29 C 19.3 km/h
182 26-02-2020 15:05:00 6.1 C 5.92 g/m*3 2.73 C 17.7 km/h
183 26-02-2020 15:10:00 6 C 5.88 g/m*3 2.82 C 16.1 km/h
184 26-02-2020 15:15:00 6.1 C 5.92 g/m*3 3.72 C 11.3 km/h
185 26-02-2020 15:20:00 6.2 C 5.88 g/m*3 3.56 C 12.9 km/h
186 26-02-2020 15:25:00 6.3 C 5.85 g/m*3 3.2 C 16.1 km/h
187 26-02-2020 15:30:00 6.5 C 5.85 g/m*3 1.6 C 35.4 km/h
188 26-02-2020 15:35:00 6.7 C 5.85 g/m*3 3.69 C 16.1 km/h
189 26-02-2020 15:40:00 6.6 C 5.74 g/m*3 3.17 C 19.3 km/h
190 26-02-2020 15:45:00 6.5 C 5.55 g/m*3 2.69 C 22.5 km/h
191 26-02-2020 15:50:00 6.3 C 5.55 g/m*3 2.61 C 20.9 km/h
192 26-02-2020 15:55:00 6.2 C 5.44 g/m*3 2.86 C 17.7 km/h
193 26-02-2020 16:00:00 6.1 C 5.41 g/m*3 2.35 C 20.9 km/h
194 26-02-2020 16:05:00 6.1 C 5.48 g/m*3 2.73 C 17.7 km/h
195 26-02-2020 16:10:00 6.1 C 5.33 g/m*3 2.54 C 19.3 km/h
196 26-02-2020 16:15:00 6.1 C 5.48 g/m*3 3.18 C 14.5 km/h
197 26-02-2020 16:20:00 6 C 5.44 g/m*3 2.61 C 17.7 km/h
198 26-02-2020 16:25:00 5.9 C 5.41 g/m*3 2.93 C 14.5 km/h
199 26-02-2020 16:30:00 5.9 C 5.41 g/m*3 2.1 C 20.9 km/h
200 26-02-2020 16:35:00 5.9 C 5.41 g/m*3 3.19 C 12.9 km/h
Sensor: Nr:Datum:Temp:Abs-Feuchte:Windchill:Wind:
Aussen-T/F 201 26-02-2020 16:40:00 5.8 C 5.37 g/m*3 1.8 C 22.5 km/h
202 26-02-2020 16:45:00 5.9 C 5.41 g/m*3 2.93 C 14.5 km/h
203 26-02-2020 16:50:00 5.9 C 5.41 g/m*3 2.7 C 16.1 km/h
204 26-02-2020 16:55:00 5.9 C 5.48 g/m*3 2.93 C 14.5 km/h
205 26-02-2020 17:00:00 5.8 C 5.44 g/m*3 2.16 C 19.3 km/h
206 26-02-2020 17:05:00 5.8 C 5.44 g/m*3 3.07 C 12.9 km/h
207 26-02-2020 17:10:00 5.8 C 5.37 g/m*3 2.81 C 14.5 km/h
208 26-02-2020 17:15:00 5.7 C 5.34 g/m*3 2.45 C 16.1 km/h
209 26-02-2020 17:20:00 5.6 C 5.3 g/m*3 2.11 C 17.7 km/h
210 26-02-2020 17:25:00 5.6 C 5.3 g/m*3 2.83 C 12.9 km/h
211 26-02-2020 17:30:00 5.6 C 5.3 g/m*3 1.72 C 20.9 km/h
212 26-02-2020 17:35:00 5.5 C 5.27 g/m*3 2.7 C 12.9 km/h
213 26-02-2020 17:40:00 5.4 C 5.23 g/m*3 1.66 C 19.3 km/h
214 26-02-2020 17:45:00 5.4 C 5.23 g/m*3 2.32 C 14.5 km/h
215 26-02-2020 17:50:00 5.3 C 5.27 g/m*3 3.08 C 9.7 km/h
216 26-02-2020 17:55:00 5.1 C 5.27 g/m*3 2.22 C 12.9 km/h
217 26-02-2020 18:00:00 4.9 C 5.27 g/m*3 2.61 C 9.7 km/h
218 26-02-2020 18:05:00 4.8 C 5.23 g/m*3 2.15 C 11.3 km/h
219 26-02-2020 18:10:00 4.7 C 5.26 g/m*3 2.76 C 8.1 km/h
220 26-02-2020 18:15:00 4.6 C 5.23 g/m*3 2.25 C 9.7 km/h
221 26-02-2020 18:20:00 4.4 C 5.22 g/m*3 1.67 C 11.3 km/h
222 26-02-2020 18:25:00 4.4 C 5.22 g/m*3 1.09 C 14.5 km/h
223 26-02-2020 18:30:00 4.4 C 5.16 g/m*3 1.67 C 11.3 km/h
224 26-02-2020 18:35:00 4.4 C 5.22 g/m*3 2.01 C 9.7 km/h
225 26-02-2020 18:40:00 4.4 C 5.22 g/m*3 1.36 C 12.9 km/h
Sensor: Nr:Datum:Temp:Abs-Feuchte:Windchill:Wind:
Aussen-T/F 226 26-02-2020 18:45:00 4.4 C 5.22 g/m*3 1.09 C 14.5 km/h
227 26-02-2020 18:50:00 4.5 C 5.26 g/m*3 1.79 C 11.3 km/h
228 26-02-2020 18:55:00 4.5 C 5.26 g/m*3 1.79 C 11.3 km/h
229 26-02-2020 19:00:00 4.6 C 5.29 g/m*3 2.64 C 8.1 km/h
230 26-02-2020 19:05:00 4.5 C 5.26 g/m*3 1.79 C 11.3 km/h
231 26-02-2020 19:10:00 4.5 C 5.26 g/m*3 2.13 C 9.7 km/h
232 26-02-2020 19:15:00 4.5 C 5.32 g/m*3 2.13 C 9.7 km/h
233 26-02-2020 19:20:00 4.5 C 5.32 g/m*3 2.13 C 9.7 km/h
234 26-02-2020 19:25:00 4.5 C 5.39 g/m*3 3.02 C 6.4 km/h
235 26-02-2020 19:30:00 4.4 C 5.35 g/m*3 2.01 C 9.7 km/h
236 26-02-2020 19:35:00 4.4 C 5.35 g/m*3 4.4 C 4.8 km/h
237 26-02-2020 19:40:00 4.4 C 5.35 g/m*3 2.9 C 6.4 km/h
238 26-02-2020 19:45:00 4.3 C 5.38 g/m*3 2.78 C 6.4 km/h
239 26-02-2020 19:50:00 4.3 C 5.38 g/m*3 1.89 C 9.7 km/h
240 26-02-2020 19:55:00 4.2 C 5.35 g/m*3 1.77 C 9.7 km/h
241 26-02-2020 20:00:00 4.2 C 5.35 g/m*3 2.67 C 6.4 km/h
242 26-02-2020 20:05:00 4.1 C 5.31 g/m*3 2.05 C 8.1 km/h
243 26-02-2020 20:10:00 3.9 C 5.24 g/m*3 2.32 C 6.4 km/h
244 26-02-2020 20:15:00 3.8 C 5.21 g/m*3 1.7 C 8.1 km/h
245 26-02-2020 20:20:00 3.8 C 5.21 g/m*3 0.63 C 12.9 km/h
246 26-02-2020 20:25:00 3.9 C 5.24 g/m*3 1.41 C 9.7 km/h
247 26-02-2020 20:30:00 4 C 5.21 g/m*3 1.18 C 11.3 km/h
248 26-02-2020 20:35:00 4.1 C 5.25 g/m*3 1.65 C 9.7 km/h
249 26-02-2020 20:40:00 4.1 C 5.25 g/m*3 2.55 C 6.4 km/h
250 26-02-2020 20:45:00 4.1 C 5.25 g/m*3 2.05 C 8.1 km/h
Sensor: Nr:Datum:Temp:Abs-Feuchte:Windchill:Wind:
Aussen-T/F 251 26-02-2020 20:50:00 4.1 C 5.25 g/m*3 1.65 C 9.7 km/h
252 26-02-2020 20:55:00 4.1 C 5.31 g/m*3 1.65 C 9.7 km/h
253 26-02-2020 21:00:00 4.1 C 5.31 g/m*3 1 C 12.9 km/h
254 26-02-2020 21:05:00 4.1 C 5.31 g/m*3 1.65 C 9.7 km/h
255 26-02-2020 21:10:00 4.1 C 5.38 g/m*3 1.31 C 11.3 km/h
256 26-02-2020 21:15:00 4.1 C 5.31 g/m*3 2.55 C 6.4 km/h
257 26-02-2020 21:20:00 4.1 C 5.31 g/m*3 4.1 C 3.2 km/h
258 26-02-2020 21:25:00 4 C 5.34 g/m*3 2.44 C 6.4 km/h
259 26-02-2020 21:30:00 3.9 C 5.31 g/m*3 1.82 C 8.1 km/h
260 26-02-2020 21:35:00 3.9 C 5.24 g/m*3 2.32 C 6.4 km/h
261 26-02-2020 21:40:00 3.9 C 5.31 g/m*3 2.32 C 6.4 km/h
262 26-02-2020 21:45:00 3.9 C 5.31 g/m*3 3.9 C 4.8 km/h
263 26-02-2020 21:50:00 3.9 C 5.31 g/m*3 1.82 C 8.1 km/h
264 26-02-2020 21:55:00 3.9 C 5.31 g/m*3 2.32 C 6.4 km/h
265 26-02-2020 22:00:00 3.9 C 5.31 g/m*3 1.41 C 9.7 km/h
266 26-02-2020 22:05:00 3.9 C 5.31 g/m*3 3.9 C 4.8 km/h
267 26-02-2020 22:10:00 3.9 C 5.31 g/m*3 1.82 C 8.1 km/h
268 26-02-2020 22:15:00 3.9 C 5.31 g/m*3 2.32 C 6.4 km/h
269 26-02-2020 22:20:00 3.9 C 5.37 g/m*3 3.9 C 4.8 km/h
270 26-02-2020 22:25:00 3.9 C 5.37 g/m*3 3.9 C 4.8 km/h
271 26-02-2020 22:30:00 3.9 C 5.37 g/m*3 3.9 C 4.8 km/h
272 26-02-2020 22:35:00 3.9 C 5.37 g/m*3 2.32 C 6.4 km/h
273 26-02-2020 22:40:00 3.9 C 5.37 g/m*3 0.75 C 12.9 km/h
274 26-02-2020 22:45:00 3.9 C 5.43 g/m*3 2.32 C 6.4 km/h
275 26-02-2020 22:50:00 3.9 C 5.43 g/m*3 3.9 C 4.8 km/h
Sensor: Nr:Datum:Temp:Abs-Feuchte:Windchill:Wind:
Aussen-T/F 276 26-02-2020 22:55:00 3.9 C 5.43 g/m*3 1.41 C 9.7 km/h
277 26-02-2020 23:00:00 3.9 C 5.43 g/m*3 1.06 C 11.3 km/h
278 26-02-2020 23:05:00 3.9 C 5.43 g/m*3 1.06 C 11.3 km/h
279 26-02-2020 23:10:00 3.8 C 5.46 g/m*3 2.21 C 6.4 km/h
280 26-02-2020 23:15:00 3.8 C 5.46 g/m*3 3.8 C 3.2 km/h
281 26-02-2020 23:20:00 3.7 C 5.42 g/m*3 1.58 C 8.1 km/h
282 26-02-2020 23:25:00 3.7 C 5.36 g/m*3 1.58 C 8.1 km/h
283 26-02-2020 23:30:00 3.6 C 5.32 g/m*3 3.6 C 4.8 km/h
284 26-02-2020 23:35:00 3.5 C 5.29 g/m*3 0.94 C 9.7 km/h
285 26-02-2020 23:40:00 3.4 C 5.31 g/m*3 0.82 C 9.7 km/h
286 26-02-2020 23:45:00 3.4 C 5.31 g/m*3 0.82 C 9.7 km/h
287 26-02-2020 23:50:00 3.4 C 5.31 g/m*3 0.82 C 9.7 km/h
288 26-02-2020 23:55:00 3.4 C 5.31 g/m*3 0.82 C 9.7 km/h

Legende:
   Min
   Max


Maximal/Minimal-Werte vom 26.02.2020 - 26.02.2020

Sensor Min Max Avg
Temp
(Aussen-T/F)
3.4 °C
26-02-2020  23:40:00
6.7 °C
26-02-2020  15:35:00
4.86 °C
Abs-Feuchte
(Aussen-T/F)
4.96 g/m*3
26-02-2020  06:40:00
6.1 g/m*3
26-02-2020  01:25:00
5.41 g/m*3
Windchill
(Aussen-T/F)
-1.58 C
26-02-2020  07:55:00
5.9 C
26-02-2020  01:00:00
1.9 C

Die Daten stammen von einer Davis Vantage Pro 2 Wetter-Station und werden unter Linux mit der Software wview2wettercgi und aufbereitet. Alle Angaben erfolgen ohne Gewähr für ihre Vollständigkeit oder Richtigkeit.
Kontakt: Rainer Krienke krienke@uni-koblenz.de . Meine Webseiten an der Uni Koblenz oder privat.
Version: $Revision: 0.78 $